Terminal Aerodrome Forecast
Issued by NWS Atlanta, GA

Home | Current Version | Previous Version | Text Only | Print | Product List | Glossary On
Versions: 1 2 3 4 5 6 7 8 9 10 11 12 13 14 15 16 17 18 19 20 21 22 23 24 25 26 27 28 29 30 31 32 33 34 35 36 37 38 39 40 41
879
FTUS42 KFFC 282327
TAFATL
TAF
KATL 282327Z 2900/3006 31007KT P6SM FEW050
     FM290100 30003KT P6SM FEW250
     FM290800 03003KT P6SM FEW250
     FM291500 12006KT P6SM SCT040
     FM291800 15006KT P6SM SCT050
     FM300100 13004KT P6SM SCT250=

USA.gov is the U.S. government's official web portal to all federal, state and local government web resources and services.